createdAt,value
2019-04-29T00:01:28.624Z,2.87
2019-04-29T00:03:57.876Z,3.27
2019-04-29T00:06:27.131Z,3.47
2019-04-29T00:08:56.372Z,3.17
2019-04-29T00:11:26.793Z,2.87
2019-04-29T00:13:56.033Z,2.73
2019-04-29T00:16:28.543Z,2.90
2019-04-29T00:19:05.331Z,3.03
2019-04-29T00:21:34.587Z,3.07
2019-04-29T00:24:04.374Z,2.23
2019-04-29T00:26:33.931Z,2.47
2019-04-29T00:29:03.255Z,3.37
2019-04-29T00:31:32.682Z,3.00
2019-04-29T00:34:02.009Z,2.50
2019-04-29T00:36:47.909Z,2.70
2019-04-29T00:39:24.787Z,3.20
2019-04-29T00:42:13.631Z,2.90
2019-04-29T00:44:42.925Z,2.40
2019-04-29T00:47:12.244Z,2.87
2019-04-29T00:49:41.483Z,2.90
2019-04-29T00:52:10.735Z,2.57
2019-04-29T00:54:44.576Z,1.80
2019-04-29T00:57:13.832Z,1.53
2019-04-29T00:59:43.068Z,1.53
2019-04-29T01:02:12.390Z,2.13
2019-04-29T01:04:41.640Z,2.77
2019-04-29T01:07:10.947Z,1.80
2019-04-29T01:09:40.567Z,2.40
2019-04-29T01:12:09.811Z,2.87
2019-04-29T01:14:39.060Z,1.87
2019-04-29T01:17:08.311Z,1.63
2019-04-29T01:19:37.496Z,1.43
2019-04-29T01:22:06.739Z,1.90
2019-04-29T01:24:35.987Z,1.60
2019-04-29T01:27:06.815Z,2.77
2019-04-29T01:29:36.064Z,1.93
2019-04-29T01:32:07.459Z,1.33
2019-04-29T01:34:41.015Z,1.83
2019-04-29T01:37:10.315Z,1.87
2019-04-29T01:39:41.152Z,2.53
2019-04-29T01:42:15.007Z,2.53
2019-04-29T01:44:44.261Z,1.77
2019-04-29T01:47:13.521Z,2.03
2019-04-29T01:49:42.764Z,1.67
2019-04-29T01:52:12.029Z,1.53
2019-04-29T01:54:41.275Z,1.30
2019-04-29T01:57:10.527Z,2.27
2019-04-29T01:59:39.801Z,1.63
2019-04-29T02:02:09.031Z,1.13
2019-04-29T02:04:38.286Z,1.43
2019-04-29T02:07:07.539Z,1.33
2019-04-29T02:09:44.471Z,1.53
2019-04-29T02:12:13.730Z,1.20
2019-04-29T02:14:42.961Z,1.80
2019-04-29T02:17:12.215Z,1.27
2019-04-29T02:19:41.468Z,1.57
2019-04-29T02:22:12.360Z,0.93
2019-04-29T02:24:49.136Z,2.47
2019-04-29T02:27:18.371Z,1.50
2019-04-29T02:29:47.624Z,2.33
2019-04-29T02:32:16.865Z,1.47
2019-04-29T02:34:46.129Z,2.33
2019-04-29T02:37:17.001Z,1.10
2019-04-29T02:39:53.845Z,1.20
2019-04-29T02:42:39.657Z,2.10
2019-04-29T02:45:22.644Z,1.10
2019-04-29T02:47:51.886Z,1.30
2019-04-29T02:50:21.140Z,1.33
2019-04-29T02:52:50.385Z,1.00
2019-04-29T02:55:21.279Z,2.13
2019-04-29T02:57:52.263Z,1.13
2019-04-29T03:00:32.107Z,0.90
2019-04-29T03:03:08.980Z,0.70
2019-04-29T03:05:40.120Z,1.00
2019-04-29T03:08:09.426Z,1.50
2019-04-29T03:10:38.653Z,1.83
2019-04-29T03:13:07.904Z,1.60
2019-04-29T03:15:37.161Z,0.97
2019-04-29T03:18:06.399Z,0.73
2019-04-29T03:20:53.373Z,1.87
2019-04-29T03:23:24.265Z,1.10
2019-04-29T03:25:53.504Z,0.83
2019-04-29T03:28:22.749Z,1.00
2019-04-29T03:30:52.005Z,1.40
2019-04-29T03:33:21.250Z,0.77
2019-04-29T03:35:50.501Z,1.13
2019-04-29T03:38:19.740Z,0.80
2019-04-29T03:40:48.997Z,0.83
2019-04-29T03:43:18.231Z,1.00
2019-04-29T03:45:47.526Z,1.97
2019-04-29T03:48:16.743Z,0.80
2019-04-29T03:50:45.990Z,2.10
2019-04-29T03:53:15.237Z,2.30
2019-04-29T03:55:44.506Z,0.70
2019-04-29T03:58:13.729Z,1.00
2019-04-29T04:00:44.616Z,1.17
2019-04-29T04:03:27.478Z,1.20
2019-04-29T04:06:04.493Z,1.57
2019-04-29T04:08:35.383Z,1.70
2019-04-29T04:11:04.636Z,1.37
2019-04-29T04:13:33.892Z,2.00
2019-04-29T04:16:04.012Z,1.03
2019-04-29T04:18:34.893Z,1.60
2019-04-29T04:21:04.156Z,1.10
2019-04-29T04:23:33.401Z,1.33
2019-04-29T04:26:02.644Z,1.00
2019-04-29T04:28:31.910Z,0.80
2019-04-29T04:31:01.169Z,1.60
2019-04-29T04:33:30.431Z,1.20
2019-04-29T04:35:59.690Z,1.63
2019-04-29T04:38:28.929Z,1.93
2019-04-29T04:41:02.528Z,0.90
2019-04-29T04:43:31.768Z,0.73
2019-04-29T04:46:01.029Z,1.93
2019-04-29T04:48:30.281Z,0.67
2019-04-29T04:50:59.534Z,1.63
2019-04-29T04:53:28.792Z,1.13
2019-04-29T04:55:59.916Z,0.90
2019-04-29T04:58:29.171Z,1.77
2019-04-29T05:00:58.429Z,0.90
2019-04-29T05:03:27.676Z,0.53
2019-04-29T05:05:56.916Z,1.20
2019-04-29T05:08:26.171Z,1.63
2019-04-29T05:10:55.408Z,0.70
2019-04-29T05:13:28.423Z,0.93
2019-04-29T05:15:55.601Z,1.20
2019-04-29T05:18:24.796Z,1.33
2019-04-29T05:20:54.031Z,0.80
2019-04-29T05:23:23.208Z,0.73
2019-04-29T05:25:52.463Z,0.63
2019-04-29T05:28:21.783Z,1.00
2019-04-29T05:30:51.036Z,1.60
2019-04-29T05:33:20.276Z,0.97
2019-04-29T05:35:51.170Z,1.33
2019-04-29T05:38:22.065Z,1.03
2019-04-29T05:40:52.793Z,1.23
2019-04-29T05:43:39.986Z,2.13
2019-04-29T05:46:10.873Z,1.67
2019-04-29T05:48:40.124Z,0.77
2019-04-29T05:51:17.167Z,0.70
2019-04-29T05:53:54.692Z,1.17
2019-04-29T05:56:18.944Z,0.70
2019-04-29T05:58:48.119Z,1.77
2019-04-29T06:01:19.007Z,1.70
2019-04-29T06:03:48.249Z,1.33
2019-04-29T06:06:17.501Z,0.87
2019-04-29T06:08:46.749Z,0.97
2019-04-29T06:11:16.006Z,1.67
2019-04-29T06:13:45.261Z,0.87
2019-04-29T06:16:15.815Z,1.00
2019-04-29T06:18:45.371Z,1.60
2019-04-29T06:21:14.629Z,0.50
2019-04-29T06:23:43.875Z,0.60
2019-04-29T06:26:13.131Z,1.00
2019-04-29T06:28:42.384Z,0.90
2019-04-29T06:31:12.801Z,0.87
2019-04-29T06:33:42.052Z,0.80
2019-04-29T06:36:11.301Z,1.00
2019-04-29T06:38:41.621Z,0.60
2019-04-29T06:41:10.941Z,0.87
2019-04-29T06:43:40.207Z,0.97
2019-04-29T06:46:09.460Z,0.63
2019-04-29T06:48:38.711Z,0.87
2019-04-29T06:51:07.888Z,0.80
2019-04-29T06:53:37.144Z,0.60
2019-04-29T06:56:09.060Z,0.60
2019-04-29T06:58:38.425Z,0.83
2019-04-29T07:01:07.969Z,0.70
2019-04-29T07:03:37.224Z,0.70
2019-04-29T07:06:06.459Z,1.37
2019-04-29T07:08:35.710Z,1.03
2019-04-29T07:11:04.999Z,0.60
2019-04-29T07:13:34.208Z,0.60
2019-04-29T07:16:03.459Z,0.60
2019-04-29T07:18:32.696Z,0.67
2019-04-29T07:21:01.950Z,1.10
2019-04-29T07:23:31.194Z,1.00
2019-04-29T07:26:00.444Z,0.50
2019-04-29T07:28:29.921Z,3.10
2019-04-29T07:31:02.518Z,0.70
2019-04-29T07:33:30.121Z,0.80
2019-04-29T07:36:10.407Z,0.90
2019-04-29T07:38:40.527Z,0.73
2019-04-29T07:41:01.100Z,1.20
2019-04-29T07:43:30.277Z,0.67
2019-04-29T07:46:10.091Z,0.50
2019-04-29T07:48:41.835Z,0.77
2019-04-29T07:51:10.218Z,1.10
2019-04-29T07:53:45.082Z,0.43
2019-04-29T07:56:10.329Z,0.50
2019-04-29T07:58:39.570Z,1.00
2019-04-29T08:01:08.821Z,0.70
2019-04-29T08:03:38.076Z,0.50
2019-04-29T08:06:07.330Z,1.00
2019-04-29T08:08:36.564Z,1.57
2019-04-29T08:11:06.284Z,0.37
2019-04-29T08:13:35.670Z,1.47
2019-04-29T08:16:06.132Z,0.67
2019-04-29T08:18:35.387Z,0.77
2019-04-29T08:21:04.643Z,0.70
2019-04-29T08:23:40.906Z,0.87
2019-04-29T08:26:04.774Z,1.30
2019-04-29T08:28:34.011Z,0.30
2019-04-29T08:31:03.266Z,0.33
2019-04-29T08:33:33.685Z,0.50
2019-04-29T08:36:02.940Z,0.70
2019-04-29T08:38:32.195Z,0.40
2019-04-29T08:41:01.432Z,0.60
2019-04-29T08:43:52.506Z,0.40
2019-04-29T08:46:25.968Z,0.50
2019-04-29T08:48:55.284Z,1.00
2019-04-29T08:51:24.535Z,0.83
2019-04-29T08:53:53.788Z,0.30
2019-04-29T08:56:23.027Z,0.60
2019-04-29T08:58:52.287Z,0.60
2019-04-29T09:01:24.515Z,0.73
2019-04-29T09:03:53.694Z,1.07
2019-04-29T09:06:23.268Z,0.53
2019-04-29T09:08:55.289Z,0.60
2019-04-29T09:11:23.397Z,0.37
2019-04-29T09:13:52.632Z,0.60
2019-04-29T09:16:21.886Z,0.33
2019-04-29T09:18:51.133Z,0.73
2019-04-29T09:21:20.383Z,0.50
2019-04-29T09:23:49.628Z,0.50
2019-04-29T09:26:37.079Z,0.80
2019-04-29T09:29:24.172Z,0.40
2019-04-29T09:31:53.496Z,0.67
2019-04-29T09:34:24.570Z,0.40
2019-04-29T09:36:54.667Z,1.90
2019-04-29T09:39:23.920Z,0.60
2019-04-29T09:41:54.799Z,0.40
2019-04-29T09:44:44.906Z,0.27
2019-04-29T09:47:13.776Z,0.33
2019-04-29T09:49:43.083Z,0.40
2019-04-29T09:52:12.339Z,0.50
2019-04-29T09:54:41.591Z,0.40
2019-04-29T09:57:10.991Z,0.43
2019-04-29T09:59:41.870Z,0.53
2019-04-29T10:02:15.956Z,0.30
2019-04-29T10:04:56.292Z,0.33
2019-04-29T10:07:20.540Z,0.60
2019-04-29T10:09:56.911Z,0.20
2019-04-29T10:12:20.654Z,0.30
2019-04-29T10:14:49.904Z,0.50
2019-04-29T10:17:20.776Z,0.40
2019-04-29T10:19:54.612Z,0.30
2019-04-29T10:22:23.852Z,0.60
2019-04-29T10:24:53.107Z,0.43
2019-04-29T10:27:22.462Z,0.47
2019-04-29T10:29:55.267Z,0.53
2019-04-29T10:32:24.765Z,0.33
2019-04-29T10:34:54.004Z,0.60
2019-04-29T10:37:30.962Z,0.30
2019-04-29T10:39:55.835Z,0.50
2019-04-29T10:42:26.728Z,0.30
2019-04-29T10:45:06.492Z,0.70
2019-04-29T10:47:44.731Z,1.13
2019-04-29T10:50:17.050Z,0.20
2019-04-29T10:52:46.552Z,0.30
2019-04-29T10:55:15.874Z,0.70
2019-04-29T10:57:49.716Z,0.47
2019-04-29T11:00:33.868Z,0.30
2019-04-29T11:03:04.344Z,0.33
2019-04-29T11:05:35.241Z,0.30
2019-04-29T11:08:06.133Z,0.30
2019-04-29T11:10:35.442Z,0.50
2019-04-29T11:13:04.832Z,0.20
2019-04-29T11:15:37.593Z,0.27
2019-04-29T11:18:06.911Z,0.40
2019-04-29T11:20:36.170Z,0.20
2019-04-29T11:23:22.279Z,0.50
2019-04-29T11:26:04.932Z,0.40
2019-04-29T11:28:34.851Z,0.30
2019-04-29T11:31:04.277Z,0.57
2019-04-29T11:33:44.115Z,0.30
2019-04-29T11:36:15.014Z,0.97
2019-04-29T11:38:44.257Z,0.40
2019-04-29T11:41:19.709Z,0.20
2019-04-29T11:43:46.612Z,0.60
2019-04-29T11:46:15.790Z,0.73
2019-04-29T11:48:45.534Z,0.63
2019-04-29T11:51:19.388Z,0.30
2019-04-29T11:53:48.708Z,0.20
2019-04-29T11:56:17.963Z,0.30
2019-04-29T11:58:54.494Z,0.43
2019-04-29T12:01:38.597Z,0.20
2019-04-29T12:04:00.370Z,0.33
2019-04-29T12:06:29.693Z,0.50
2019-04-29T12:08:58.944Z,0.20
2019-04-29T12:11:35.805Z,0.30
2019-04-29T12:14:12.789Z,41.63
2019-04-29T12:16:46.643Z,43.47
2019-04-29T12:19:21.302Z,34.23
2019-04-29T12:21:49.123Z,37.60
2019-04-29T12:24:18.883Z,31.60
2019-04-29T12:26:48.105Z,28.17
2019-04-29T12:29:18.161Z,29.47
2019-04-29T12:31:51.240Z,25.63
2019-04-29T12:34:26.857Z,23.97
2019-04-29T12:36:56.914Z,22.20
2019-04-29T12:39:44.976Z,20.97
2019-04-29T12:42:29.700Z,18.67
2019-04-29T12:45:19.615Z,17.93
2019-04-29T12:47:45.947Z,15.63
2019-04-29T12:50:17.506Z,16.70
2019-04-29T12:52:46.108Z,15.33
2019-04-29T12:55:20.361Z,15.00
2019-04-29T12:57:51.135Z,15.43
2019-04-29T13:00:23.280Z,14.37
2019-04-29T13:03:12.444Z,14.00
2019-04-29T13:06:02.337Z,12.00
2019-04-29T13:08:35.175Z,11.83
2019-04-29T13:11:05.996Z,12.90
2019-04-29T13:13:35.246Z,11.67
2019-04-29T13:16:09.303Z,11.17
2019-04-29T13:19:10.426Z,10.00
2019-04-29T13:21:28.559Z,9.20
2019-04-29T13:24:12.848Z,9.20
2019-04-29T13:26:32.933Z,9.13
2019-04-29T13:29:01.493Z,9.03
2019-04-29T13:31:37.993Z,9.53
2019-04-29T13:34:14.726Z,9.07
2019-04-29T13:36:33.816Z,8.17
2019-04-29T13:39:03.053Z,8.03
2019-04-29T13:41:33.927Z,9.13
2019-04-29T13:44:05.625Z,7.87
2019-04-29T13:46:46.207Z,8.23
2019-04-29T13:49:20.084Z,7.17
2019-04-29T13:51:50.956Z,6.93
2019-04-29T13:54:20.212Z,6.47
2019-04-29T13:56:55.924Z,6.80
2019-04-29T13:59:23.141Z,6.73
2019-04-29T14:02:10.444Z,7.10
2019-04-29T14:04:41.403Z,6.77
2019-04-29T14:07:14.067Z,6.63
2019-04-29T14:09:41.521Z,7.90
2019-04-29T14:12:46.351Z,6.50
2019-04-29T14:14:41.628Z,5.93
2019-04-29T14:17:25.848Z,5.93
2019-04-29T14:19:43.016Z,6.00
2019-04-29T14:22:21.981Z,5.70
2019-04-29T14:24:46.521Z,5.27
2019-04-29T14:27:24.739Z,5.97
2019-04-29T14:29:44.925Z,7.67
2019-04-29T14:32:18.100Z,4.90
2019-04-29T14:34:58.971Z,5.13
2019-04-29T14:37:28.148Z,6.67
2019-04-29T14:39:57.406Z,6.30
2019-04-29T14:42:57.352Z,4.93
2019-04-29T14:45:21.701Z,5.23
2019-04-29T14:47:52.534Z,6.43
2019-04-29T14:50:21.783Z,5.43
2019-04-29T14:52:51.032Z,5.57
2019-04-29T14:55:25.532Z,5.07
2019-04-29T14:57:52.521Z,6.43
2019-04-29T15:00:23.496Z,7.63
2019-04-29T15:02:55.845Z,8.37
2019-04-29T15:05:23.647Z,6.10
2019-04-29T15:07:52.897Z,6.47
2019-04-29T15:10:26.752Z,5.90
2019-04-29T15:13:01.582Z,6.40
2019-04-29T15:15:44.571Z,6.03
2019-04-29T15:18:45.810Z,6.33
2019-04-29T15:21:31.474Z,5.93
2019-04-29T15:23:51.609Z,5.77
2019-04-29T15:26:20.849Z,5.37
2019-04-29T15:28:52.768Z,5.63
2019-04-29T15:31:24.219Z,7.23
2019-04-29T15:33:53.459Z,4.97
2019-04-29T15:36:22.711Z,5.00
2019-04-29T15:39:08.210Z,5.63
2019-04-29T15:41:29.488Z,4.37
2019-04-29T15:44:06.520Z,5.37
2019-04-29T15:46:24.567Z,5.63
2019-04-29T15:48:53.808Z,5.50
2019-04-29T15:51:23.044Z,4.27
2019-04-29T15:53:54.387Z,4.70
2019-04-29T15:56:28.970Z,4.20
2019-04-29T15:58:54.324Z,5.53
2019-04-29T16:01:27.888Z,4.23
2019-04-29T16:03:56.906Z,4.03
2019-04-29T16:06:41.344Z,4.80
2019-04-29T16:09:12.435Z,4.40
2019-04-29T16:11:57.009Z,4.77
2019-04-29T16:14:26.264Z,4.87
2019-04-29T16:16:55.520Z,4.60
2019-04-29T16:19:24.777Z,4.90
2019-04-29T16:21:54.104Z,3.80
2019-04-29T16:24:26.795Z,5.07
2019-04-29T16:26:55.404Z,3.60
2019-04-29T16:29:24.656Z,4.40
2019-04-29T16:31:54.945Z,5.23
2019-04-29T16:34:24.903Z,4.60
2019-04-29T16:36:54.152Z,4.47
2019-04-29T16:39:23.405Z,4.10
2019-04-29T16:46:56.103Z,4.50
2019-04-29T16:49:25.352Z,4.13
2019-04-29T16:51:55.931Z,4.30
2019-04-29T16:54:28.311Z,4.40
2019-04-29T16:56:56.148Z,4.27
2019-04-29T16:59:25.389Z,3.20
2019-04-29T17:01:54.708Z,3.60
2019-04-29T17:04:24.035Z,3.53
2019-04-29T17:07:11.706Z,3.33
2019-04-29T17:09:31.536Z,3.33
2019-04-29T17:12:01.867Z,4.50
2019-04-29T17:14:31.682Z,3.47
2019-04-29T17:17:00.935Z,3.33
2019-04-29T17:19:30.182Z,3.27
2019-04-29T17:22:24.393Z,3.03
2019-04-29T17:24:30.377Z,3.30
2019-04-29T17:27:04.296Z,2.87
2019-04-29T17:29:40.843Z,3.47
2019-04-29T17:32:23.610Z,3.53
2019-04-29T17:34:59.639Z,2.90
2019-04-29T17:35:17.400Z,3.73
2019-04-29T17:35:18.745Z,4.23
2019-04-29T17:37:24.619Z,2.97
2019-04-29T17:39:53.882Z,3.27
2019-04-29T17:42:23.605Z,3.37
2019-04-29T17:44:52.840Z,2.80
2019-04-29T17:47:26.528Z,2.80
2019-04-29T17:50:15.781Z,2.87
2019-04-29T17:52:45.136Z,2.97
2019-04-29T17:55:16.019Z,3.30
2019-04-29T17:57:49.447Z,2.70
2019-04-29T18:00:26.420Z,2.97
2019-04-29T18:03:00.708Z,2.97
2019-04-29T18:05:33.163Z,2.17
2019-04-29T18:08:11.361Z,2.70
2019-04-29T18:10:42.257Z,3.00
2019-04-29T18:13:12.489Z,2.50
2019-04-29T18:15:57.571Z,2.83
2019-04-29T18:18:17.384Z,2.23
2019-04-29T18:20:55.250Z,2.10
2019-04-29T18:23:28.792Z,2.40
2019-04-29T18:25:59.690Z,2.20
2019-04-29T18:28:29.078Z,2.43
2019-04-29T18:30:58.319Z,2.77
2019-04-29T18:33:30.252Z,2.17
2019-04-29T18:36:04.409Z,2.40
2019-04-29T18:38:29.304Z,1.83
2019-04-29T18:40:58.560Z,2.17
2019-04-29T18:43:27.796Z,2.30
2019-04-29T18:45:59.121Z,2.63
2019-04-29T18:48:27.934Z,2.30
2019-04-29T18:50:57.262Z,2.10
2019-04-29T18:53:27.504Z,2.10
2019-04-29T18:55:56.759Z,1.93
2019-04-29T18:58:25.941Z,2.30
2019-04-29T19:00:56.448Z,2.27
2019-04-29T19:03:43.559Z,1.47
2019-04-29T19:06:12.879Z,1.90
2019-04-29T19:08:42.141Z,1.93
2019-04-29T19:11:11.393Z,2.07
2019-04-29T19:13:43.513Z,2.23
2019-04-29T19:16:12.602Z,1.90
2019-04-29T19:18:42.080Z,1.77
2019-04-29T19:21:11.324Z,1.50
2019-04-29T19:23:40.575Z,2.20
2019-04-29T19:26:09.819Z,2.13
2019-04-29T19:28:39.053Z,1.60
2019-04-29T19:31:09.812Z,1.73
2019-04-29T19:33:39.559Z,1.97
2019-04-29T19:36:13.208Z,1.43
2019-04-29T19:38:43.330Z,1.30
2019-04-29T19:41:11.511Z,1.67
2019-04-29T19:43:41.495Z,2.50
2019-04-29T19:46:21.827Z,1.83
2019-04-29T19:48:41.529Z,1.50
2019-04-29T19:51:17.873Z,1.90
2019-04-29T19:53:42.827Z,1.90
2019-04-29T19:56:20.926Z,1.73
2019-04-29T19:58:43.729Z,1.93
2019-04-29T20:01:25.628Z,1.57
2019-04-29T20:03:49.820Z,1.33
2019-04-29T20:06:24.743Z,1.63
2019-04-29T20:08:54.554Z,2.00
2019-04-29T20:11:19.809Z,1.47
2019-04-29T20:14:02.042Z,1.10
2019-04-29T20:16:42.658Z,1.33
2019-04-29T20:19:12.064Z,1.63
2019-04-29T20:21:41.595Z,1.20
2019-04-29T20:24:15.599Z,1.30
2019-04-29T20:26:44.036Z,1.33
2019-04-29T20:29:12.745Z,1.20
2019-04-29T20:31:48.718Z,1.27
2019-04-29T20:34:13.188Z,2.43
2019-04-29T20:36:43.125Z,1.20
2019-04-29T20:39:17.060Z,1.50
2019-04-29T20:41:47.096Z,1.37
2019-04-29T20:44:16.263Z,1.17
2019-04-29T20:47:13.090Z,1.27
2019-04-29T20:49:16.993Z,1.30
2019-04-29T20:51:52.087Z,1.20
2019-04-29T20:54:32.394Z,1.00
2019-04-29T20:57:05.132Z,1.13
2019-04-29T20:59:32.546Z,1.57
2019-04-29T21:02:12.266Z,1.20
2019-04-29T21:04:45.767Z,1.00
2019-04-29T21:07:07.028Z,1.07
2019-04-29T21:09:36.435Z,0.90
2019-04-29T21:12:13.320Z,0.90
2019-04-29T21:14:46.329Z,0.70
2019-04-29T21:17:28.009Z,0.90
2019-04-29T21:19:45.945Z,1.33
2019-04-29T21:22:21.959Z,1.00
2019-04-29T21:24:49.406Z,1.10
2019-04-29T21:27:22.678Z,0.93
2019-04-29T21:29:49.820Z,1.10
2019-04-29T21:32:19.151Z,0.97
2019-04-29T21:34:50.047Z,1.40
2019-04-29T21:37:20.943Z,0.83
2019-04-29T21:39:51.831Z,1.37
2019-04-29T21:42:22.728Z,1.20
2019-04-29T21:44:52.038Z,0.63
2019-04-29T21:47:22.457Z,0.87
2019-04-29T21:49:54.647Z,1.07
2019-04-29T21:52:23.980Z,0.87
2019-04-29T21:54:54.598Z,0.93
2019-04-29T21:57:25.683Z,0.80
2019-04-29T21:59:55.542Z,0.80
2019-04-29T22:02:26.063Z,1.07
2019-04-29T22:04:55.408Z,0.70
2019-04-29T22:07:25.857Z,1.10
2019-04-29T22:09:55.665Z,0.93
2019-04-29T22:12:25.108Z,0.97
2019-04-29T22:14:56.414Z,0.90
2019-04-29T22:17:32.870Z,1.63
2019-04-29T22:20:04.145Z,0.70
2019-04-29T22:22:30.719Z,0.60
2019-04-29T22:25:05.743Z,1.00
2019-04-29T22:27:34.264Z,0.80
2019-04-29T22:30:01.479Z,0.73
2019-04-29T22:32:30.804Z,0.57
2019-04-29T22:35:01.507Z,0.87
2019-04-29T22:37:34.718Z,1.40
2019-04-29T22:40:03.101Z,0.50
2019-04-29T22:42:35.509Z,1.10
2019-04-29T22:45:06.267Z,0.70
2019-04-29T22:47:35.520Z,0.60
2019-04-29T22:50:05.949Z,0.60
2019-04-29T22:52:36.714Z,0.70
2019-04-29T22:55:07.234Z,0.90
2019-04-29T22:57:36.464Z,0.77
2019-04-29T23:00:07.824Z,0.60
2019-04-29T23:02:38.679Z,0.57
2019-04-29T23:05:07.856Z,0.63
2019-04-29T23:07:37.808Z,0.40
2019-04-29T23:10:07.431Z,0.83
2019-04-29T23:12:36.752Z,0.50
2019-04-29T23:15:06.660Z,0.60
2019-04-29T23:17:35.916Z,0.50
2019-04-29T23:20:10.755Z,0.73
2019-04-29T23:22:44.605Z,0.70
2019-04-29T23:25:15.686Z,0.40
2019-04-29T23:27:48.472Z,0.47
2019-04-29T23:30:19.218Z,0.50
2019-04-29T23:32:48.840Z,0.40
2019-04-29T23:35:18.093Z,0.40
2019-04-29T23:37:47.336Z,0.60
2019-04-29T23:40:16.572Z,0.40
2019-04-29T23:42:47.866Z,0.50
2019-04-29T23:45:21.114Z,0.40
2019-04-29T23:47:50.299Z,0.50
2019-04-29T23:50:18.940Z,1.37
2019-04-29T23:52:51.749Z,0.27
2019-04-29T23:55:20.420Z,0.60
2019-04-29T23:58:02.785Z,0.40
